sensor_id;sensor_type;location;lat;lon;timestamp;temperature;humidity
17587;DHT22;8912;52.336;17.172;2022-09-09T00:01:27;17.40;99.90
17587;DHT22;8912;52.336;17.172;2022-09-09T00:04:03;17.40;99.90
17587;DHT22;8912;52.336;17.172;2022-09-09T00:06:42;17.30;99.90
17587;DHT22;8912;52.336;17.172;2022-09-09T00:09:13;17.30;99.90
17587;DHT22;8912;52.336;17.172;2022-09-09T00:11:46;17.30;99.90
17587;DHT22;8912;52.336;17.172;2022-09-09T00:14:24;17.30;99.90
17587;DHT22;8912;52.336;17.172;2022-09-09T00:17:01;17.20;99.90
17587;DHT22;8912;52.336;17.172;2022-09-09T00:19:40;17.10;99.90
17587;DHT22;8912;52.336;17.172;2022-09-09T00:22:15;17.10;99.90
17587;DHT22;8912;52.336;17.172;2022-09-09T00:24:46;17.00;99.90
17587;DHT22;8912;52.336;17.172;2022-09-09T00:27:22;17.00;99.90
17587;DHT22;8912;52.336;17.172;2022-09-09T00:29:56;16.90;99.90
17587;DHT22;8912;52.336;17.172;2022-09-09T00:32:29;16.80;99.90
17587;DHT22;8912;52.336;17.172;2022-09-09T00:35:02;16.80;99.90
17587;DHT22;8912;52.336;17.172;2022-09-09T00:37:33;16.80;99.90
17587;DHT22;8912;52.336;17.172;2022-09-09T00:40:13;16.80;99.90
17587;DHT22;8912;52.336;17.172;2022-09-09T00:42:44;16.80;99.90
17587;DHT22;8912;52.336;17.172;2022-09-09T00:45:30;16.80;99.90
17587;DHT22;8912;52.336;17.172;2022-09-09T00:48:05;16.70;99.90
17587;DHT22;8912;52.336;17.172;2022-09-09T00:50:43;16.70;99.90
17587;DHT22;8912;52.336;17.172;2022-09-09T00:53:25;16.70;99.90
17587;DHT22;8912;52.336;17.172;2022-09-09T00:56:03;16.70;99.90
17587;DHT22;8912;52.336;17.172;2022-09-09T00:58:35;16.60;99.90
17587;DHT22;8912;52.336;17.172;2022-09-09T01:01:09;16.60;99.90
17587;DHT22;8912;52.336;17.172;2022-09-09T01:03:45;16.60;99.90
17587;DHT22;8912;52.336;17.172;2022-09-09T01:06:17;16.50;99.90
17587;DHT22;8912;52.336;17.172;2022-09-09T01:09:00;16.50;99.90
17587;DHT22;8912;52.336;17.172;2022-09-09T01:11:37;16.50;99.90
17587;DHT22;8912;52.336;17.172;2022-09-09T01:14:16;16.50;99.90
17587;DHT22;8912;52.336;17.172;2022-09-09T01:16:50;16.40;99.90
17587;DHT22;8912;52.336;17.172;2022-09-09T01:19:32;16.40;99.90
17587;DHT22;8912;52.336;17.172;2022-09-09T01:22:10;16.40;99.90
17587;DHT22;8912;52.336;17.172;2022-09-09T01:25:01;16.30;99.90
17587;DHT22;8912;52.336;17.172;2022-09-09T01:28:06;16.30;99.90
17587;DHT22;8912;52.336;17.172;2022-09-09T01:30:39;16.20;99.90
17587;DHT22;8912;52.336;17.172;2022-09-09T01:33:14;16.10;99.90
17587;DHT22;8912;52.336;17.172;2022-09-09T01:35:46;16.10;99.90
17587;DHT22;8912;52.336;17.172;2022-09-09T01:38:18;16.00;99.90
17587;DHT22;8912;52.336;17.172;2022-09-09T01:40:51;16.00;99.90
17587;DHT22;8912;52.336;17.172;2022-09-09T01:43:27;15.90;99.90
17587;DHT22;8912;52.336;17.172;2022-09-09T01:45:59;15.80;99.90
17587;DHT22;8912;52.336;17.172;2022-09-09T01:48:30;15.80;99.90
17587;DHT22;8912;52.336;17.172;2022-09-09T01:51:02;15.80;99.90
17587;DHT22;8912;52.336;17.172;2022-09-09T01:53:31;15.70;99.90
17587;DHT22;8912;52.336;17.172;2022-09-09T01:56:07;15.70;99.90
17587;DHT22;8912;52.336;17.172;2022-09-09T01:58:51;15.70;99.90
17587;DHT22;8912;52.336;17.172;2022-09-09T02:01:35;15.80;99.90
17587;DHT22;8912;52.336;17.172;2022-09-09T02:04:13;15.70;99.90
17587;DHT22;8912;52.336;17.172;2022-09-09T02:06:46;15.70;99.90
17587;DHT22;8912;52.336;17.172;2022-09-09T02:09:26;15.60;99.90
17587;DHT22;8912;52.336;17.172;2022-09-09T02:12:02;15.50;99.90
17587;DHT22;8912;52.336;17.172;2022-09-09T02:14:48;15.50;99.90
17587;DHT22;8912;52.336;17.172;2022-09-09T02:17:25;15.50;99.90
17587;DHT22;8912;52.336;17.172;2022-09-09T02:20:04;15.50;99.90
17587;DHT22;8912;52.336;17.172;2022-09-09T02:22:48;15.40;99.90
17587;DHT22;8912;52.336;17.172;2022-09-09T02:25:21;15.40;99.90
17587;DHT22;8912;52.336;17.172;2022-09-09T02:27:53;15.40;99.90
17587;DHT22;8912;52.336;17.172;2022-09-09T02:30:23;15.30;99.90
17587;DHT22;8912;52.336;17.172;2022-09-09T02:32:57;15.30;99.90
17587;DHT22;8912;52.336;17.172;2022-09-09T02:35:40;15.30;99.90
17587;DHT22;8912;52.336;17.172;2022-09-09T02:38:12;15.20;99.90
17587;DHT22;8912;52.336;17.172;2022-09-09T02:40:50;15.20;99.90
17587;DHT22;8912;52.336;17.172;2022-09-09T02:43:19;15.10;99.90
17587;DHT22;8912;52.336;17.172;2022-09-09T02:45:59;15.20;99.90
17587;DHT22;8912;52.336;17.172;2022-09-09T02:48:34;15.20;99.90
17587;DHT22;8912;52.336;17.172;2022-09-09T02:51:09;15.10;99.90
17587;DHT22;8912;52.336;17.172;2022-09-09T02:53:43;15.10;99.90
17587;DHT22;8912;52.336;17.172;2022-09-09T02:56:15;15.00;99.90
17587;DHT22;8912;52.336;17.172;2022-09-09T02:58:47;15.10;99.90
17587;DHT22;8912;52.336;17.172;2022-09-09T03:01:21;14.90;99.90
17587;DHT22;8912;52.336;17.172;2022-09-09T03:03:50;14.90;99.90
17587;DHT22;8912;52.336;17.172;2022-09-09T03:06:18;14.80;99.90
17587;DHT22;8912;52.336;17.172;2022-09-09T03:08:53;14.80;99.90
17587;DHT22;8912;52.336;17.172;2022-09-09T03:11:25;14.70;99.90
17587;DHT22;8912;52.336;17.172;2022-09-09T03:13:54;14.70;99.90
17587;DHT22;8912;52.336;17.172;2022-09-09T03:16:27;14.60;99.90
17587;DHT22;8912;52.336;17.172;2022-09-09T03:18:56;14.60;99.90
17587;DHT22;8912;52.336;17.172;2022-09-09T03:21:24;14.70;99.90
17587;DHT22;8912;52.336;17.172;2022-09-09T03:23:54;14.50;99.90
17587;DHT22;8912;52.336;17.172;2022-09-09T03:26:24;14.50;99.90
17587;DHT22;8912;52.336;17.172;2022-09-09T03:28:53;14.50;99.90
17587;DHT22;8912;52.336;17.172;2022-09-09T03:31:23;14.60;99.90
17587;DHT22;8912;52.336;17.172;2022-09-09T03:33:54;14.60;99.90
17587;DHT22;8912;52.336;17.172;2022-09-09T03:36:23;14.60;99.90
17587;DHT22;8912;52.336;17.172;2022-09-09T03:38:53;14.60;99.90
17587;DHT22;8912;52.336;17.172;2022-09-09T03:41:24;14.60;99.90
17587;DHT22;8912;52.336;17.172;2022-09-09T03:43:54;14.60;99.90
17587;DHT22;8912;52.336;17.172;2022-09-09T03:46:25;14.60;99.90
17587;DHT22;8912;52.336;17.172;2022-09-09T03:48:56;14.60;99.90
17587;DHT22;8912;52.336;17.172;2022-09-09T03:51:25;14.60;99.90
17587;DHT22;8912;52.336;17.172;2022-09-09T03:53:54;14.70;99.90
17587;DHT22;8912;52.336;17.172;2022-09-09T03:56:24;14.60;99.90
17587;DHT22;8912;52.336;17.172;2022-09-09T03:58:53;14.70;99.90
17587;DHT22;8912;52.336;17.172;2022-09-09T04:01:21;14.70;99.90
17587;DHT22;8912;52.336;17.172;2022-09-09T04:03:50;14.80;99.90
17587;DHT22;8912;52.336;17.172;2022-09-09T04:06:21;14.80;99.90
17587;DHT22;8912;52.336;17.172;2022-09-09T04:08:50;14.90;99.90
17587;DHT22;8912;52.336;17.172;2022-09-09T04:11:20;14.90;99.90
17587;DHT22;8912;52.336;17.172;2022-09-09T04:13:51;14.90;99.90
17587;DHT22;8912;52.336;17.172;2022-09-09T04:16:20;14.90;99.90
17587;DHT22;8912;52.336;17.172;2022-09-09T04:18:49;15.00;99.90
17587;DHT22;8912;52.336;17.172;2022-09-09T04:21:18;15.00;99.90
17587;DHT22;8912;52.336;17.172;2022-09-09T04:23:48;15.10;99.90
17587;DHT22;8912;52.336;17.172;2022-09-09T04:26:17;15.00;99.90
17587;DHT22;8912;52.336;17.172;2022-09-09T04:28:46;15.00;99.90
17587;DHT22;8912;52.336;17.172;2022-09-09T04:31:20;15.00;99.90
17587;DHT22;8912;52.336;17.172;2022-09-09T04:33:53;15.00;99.90
17587;DHT22;8912;52.336;17.172;2022-09-09T04:36:22;15.10;99.90
17587;DHT22;8912;52.336;17.172;2022-09-09T04:38:56;15.10;99.90
17587;DHT22;8912;52.336;17.172;2022-09-09T04:41:25;15.20;99.90
17587;DHT22;8912;52.336;17.172;2022-09-09T04:43:54;15.20;99.90
17587;DHT22;8912;52.336;17.172;2022-09-09T04:46:23;15.10;99.90
17587;DHT22;8912;52.336;17.172;2022-09-09T04:48:52;15.10;99.90
17587;DHT22;8912;52.336;17.172;2022-09-09T04:51:26;15.20;99.90
17587;DHT22;8912;52.336;17.172;2022-09-09T04:53:56;15.20;99.90
17587;DHT22;8912;52.336;17.172;2022-09-09T04:56:25;15.20;99.90
17587;DHT22;8912;52.336;17.172;2022-09-09T04:58:57;15.20;99.90
17587;DHT22;8912;52.336;17.172;2022-09-09T05:01:36;15.20;99.90
17587;DHT22;8912;52.336;17.172;2022-09-09T05:04:05;15.20;99.90
17587;DHT22;8912;52.336;17.172;2022-09-09T05:06:34;15.30;99.90
17587;DHT22;8912;52.336;17.172;2022-09-09T05:09:05;15.30;99.90
17587;DHT22;8912;52.336;17.172;2022-09-09T05:11:34;15.30;99.90
17587;DHT22;8912;52.336;17.172;2022-09-09T05:14:26;15.40;99.90
17587;DHT22;8912;52.336;17.172;2022-09-09T05:16:55;15.30;99.90
17587;DHT22;8912;52.336;17.172;2022-09-09T05:19:25;15.40;99.90
17587;DHT22;8912;52.336;17.172;2022-09-09T05:21:54;15.40;99.90
17587;DHT22;8912;52.336;17.172;2022-09-09T05:24:35;15.40;99.90
17587;DHT22;8912;52.336;17.172;2022-09-09T05:27:05;15.40;99.90
17587;DHT22;8912;52.336;17.172;2022-09-09T05:29:33;15.40;99.90
17587;DHT22;8912;52.336;17.172;2022-09-09T05:32:04;15.40;99.90
17587;DHT22;8912;52.336;17.172;2022-09-09T05:34:35;15.40;99.90
17587;DHT22;8912;52.336;17.172;2022-09-09T05:37:05;15.40;99.90
17587;DHT22;8912;52.336;17.172;2022-09-09T05:39:36;15.50;99.90
17587;DHT22;8912;52.336;17.172;2022-09-09T05:42:06;15.50;99.90
17587;DHT22;8912;52.336;17.172;2022-09-09T05:44:34;15.50;99.90
17587;DHT22;8912;52.336;17.172;2022-09-09T05:47:04;15.40;99.90
17587;DHT22;8912;52.336;17.172;2022-09-09T05:49:35;15.40;99.90
17587;DHT22;8912;52.336;17.172;2022-09-09T05:52:04;15.50;99.90
17587;DHT22;8912;52.336;17.172;2022-09-09T05:54:35;15.40;99.90
17587;DHT22;8912;52.336;17.172;2022-09-09T05:57:05;15.40;99.90
17587;DHT22;8912;52.336;17.172;2022-09-09T05:59:33;15.40;99.90
17587;DHT22;8912;52.336;17.172;2022-09-09T06:02:02;15.40;99.90
17587;DHT22;8912;52.336;17.172;2022-09-09T06:04:35;15.40;99.90
17587;DHT22;8912;52.336;17.172;2022-09-09T06:07:04;15.50;99.90
17587;DHT22;8912;52.336;17.172;2022-09-09T06:09:33;15.40;99.90
17587;DHT22;8912;52.336;17.172;2022-09-09T06:12:03;15.50;99.90
17587;DHT22;8912;52.336;17.172;2022-09-09T06:14:35;15.50;99.90
17587;DHT22;8912;52.336;17.172;2022-09-09T06:17:04;15.60;99.90
17587;DHT22;8912;52.336;17.172;2022-09-09T06:19:33;15.70;99.90
17587;DHT22;8912;52.336;17.172;2022-09-09T06:22:02;15.70;99.90
17587;DHT22;8912;52.336;17.172;2022-09-09T06:24:34;15.80;99.90
17587;DHT22;8912;52.336;17.172;2022-09-09T06:27:05;15.90;99.90
17587;DHT22;8912;52.336;17.172;2022-09-09T06:29:36;15.90;99.90
17587;DHT22;8912;52.336;17.172;2022-09-09T06:32:05;15.90;99.90
17587;DHT22;8912;52.336;17.172;2022-09-09T06:34:35;16.20;99.90
17587;DHT22;8912;52.336;17.172;2022-09-09T06:37:04;16.20;99.90
17587;DHT22;8912;52.336;17.172;2022-09-09T06:39:41;16.30;99.90
17587;DHT22;8912;52.336;17.172;2022-09-09T06:42:12;16.50;99.90
17587;DHT22;8912;52.336;17.172;2022-09-09T06:44:51;16.50;99.90
17587;DHT22;8912;52.336;17.172;2022-09-09T06:47:43;16.50;99.90
17587;DHT22;8912;52.336;17.172;2022-09-09T06:50:11;16.70;99.90
17587;DHT22;8912;52.336;17.172;2022-09-09T06:52:40;16.80;99.90
17587;DHT22;8912;52.336;17.172;2022-09-09T06:55:09;16.90;99.90
17587;DHT22;8912;52.336;17.172;2022-09-09T06:57:39;17.20;99.90
17587;DHT22;8912;52.336;17.172;2022-09-09T07:00:14;17.10;99.90
17587;DHT22;8912;52.336;17.172;2022-09-09T07:02:42;17.20;99.90
17587;DHT22;8912;52.336;17.172;2022-09-09T07:05:12;17.30;99.90
17587;DHT22;8912;52.336;17.172;2022-09-09T07:07:44;17.20;99.90
17587;DHT22;8912;52.336;17.172;2022-09-09T07:10:14;17.00;99.90
17587;DHT22;8912;52.336;17.172;2022-09-09T07:12:50;17.20;99.90
17587;DHT22;8912;52.336;17.172;2022-09-09T07:15:21;17.40;99.90
17587;DHT22;8912;52.336;17.172;2022-09-09T07:17:50;17.40;99.90
17587;DHT22;8912;52.336;17.172;2022-09-09T07:20:20;17.60;99.90
17587;DHT22;8912;52.336;17.172;2022-09-09T07:22:50;17.90;99.90
17587;DHT22;8912;52.336;17.172;2022-09-09T07:25:22;18.00;99.90
17587;DHT22;8912;52.336;17.172;2022-09-09T07:27:52;18.20;99.90
17587;DHT22;8912;52.336;17.172;2022-09-09T07:30:21;18.40;99.90
17587;DHT22;8912;52.336;17.172;2022-09-09T07:32:55;18.60;99.90
17587;DHT22;8912;52.336;17.172;2022-09-09T07:35:25;18.60;99.90
17587;DHT22;8912;52.336;17.172;2022-09-09T07:37:54;18.60;99.90
17587;DHT22;8912;52.336;17.172;2022-09-09T07:40:23;18.70;99.90
17587;DHT22;8912;52.336;17.172;2022-09-09T07:42:54;18.80;99.90
17587;DHT22;8912;52.336;17.172;2022-09-09T07:45:23;18.70;99.90
17587;DHT22;8912;52.336;17.172;2022-09-09T07:47:51;18.80;99.90
17587;DHT22;8912;52.336;17.172;2022-09-09T07:50:21;19.00;99.90
17587;DHT22;8912;52.336;17.172;2022-09-09T07:52:50;18.80;99.90
17587;DHT22;8912;52.336;17.172;2022-09-09T07:55:21;18.20;99.90
17587;DHT22;8912;52.336;17.172;2022-09-09T07:57:55;18.20;99.90
17587;DHT22;8912;52.336;17.172;2022-09-09T08:00:24;18.10;99.90
17587;DHT22;8912;52.336;17.172;2022-09-09T08:02:57;18.00;99.90
17587;DHT22;8912;52.336;17.172;2022-09-09T08:05:28;18.00;99.90
17587;DHT22;8912;52.336;17.172;2022-09-09T08:07:57;18.40;99.90
17587;DHT22;8912;52.336;17.172;2022-09-09T08:10:26;18.60;99.90
17587;DHT22;8912;52.336;17.172;2022-09-09T08:12:57;18.90;99.90
17587;DHT22;8912;52.336;17.172;2022-09-09T08:15:44;19.00;99.90
17587;DHT22;8912;52.336;17.172;2022-09-09T08:18:14;19.10;99.90
17587;DHT22;8912;52.336;17.172;2022-09-09T08:20:44;19.20;99.90
17587;DHT22;8912;52.336;17.172;2022-09-09T08:23:12;19.50;99.90
17587;DHT22;8912;52.336;17.172;2022-09-09T08:25:41;19.50;99.90
17587;DHT22;8912;52.336;17.172;2022-09-09T08:28:11;19.30;99.90
17587;DHT22;8912;52.336;17.172;2022-09-09T08:30:39;19.50;99.90
17587;DHT22;8912;52.336;17.172;2022-09-09T08:33:09;19.90;99.90
17587;DHT22;8912;52.336;17.172;2022-09-09T08:35:38;20.30;99.90
17587;DHT22;8912;52.336;17.172;2022-09-09T08:38:06;20.50;99.90
17587;DHT22;8912;52.336;17.172;2022-09-09T08:40:41;20.40;99.90
17587;DHT22;8912;52.336;17.172;2022-09-09T08:43:13;20.40;99.90
17587;DHT22;8912;52.336;17.172;2022-09-09T08:45:49;20.40;99.90
17587;DHT22;8912;52.336;17.172;2022-09-09T08:48:30;20.40;99.90
17587;DHT22;8912;52.336;17.172;2022-09-09T08:51:05;20.60;99.90
17587;DHT22;8912;52.336;17.172;2022-09-09T08:53:39;20.80;99.90
17587;DHT22;8912;52.336;17.172;2022-09-09T08:56:14;21.00;99.90
17587;DHT22;8912;52.336;17.172;2022-09-09T08:58:51;20.90;99.90
17587;DHT22;8912;52.336;17.172;2022-09-09T09:01:44;20.80;99.90
17587;DHT22;8912;52.336;17.172;2022-09-09T09:04:36;20.80;99.90
17587;DHT22;8912;52.336;17.172;2022-09-09T09:07:15;20.90;99.90
17587;DHT22;8912;52.336;17.172;2022-09-09T09:09:54;21.00;99.90
17587;DHT22;8912;52.336;17.172;2022-09-09T09:12:29;21.20;99.90
17587;DHT22;8912;52.336;17.172;2022-09-09T09:15:00;21.50;99.90
17587;DHT22;8912;52.336;17.172;2022-09-09T09:17:31;21.40;99.90
17587;DHT22;8912;52.336;17.172;2022-09-09T09:20:01;21.60;99.90
17587;DHT22;8912;52.336;17.172;2022-09-09T09:22:38;22.00;99.90
17587;DHT22;8912;52.336;17.172;2022-09-09T09:25:14;21.90;99.90
17587;DHT22;8912;52.336;17.172;2022-09-09T09:27:49;21.70;99.90
17587;DHT22;8912;52.336;17.172;2022-09-09T09:30:28;21.70;99.90
17587;DHT22;8912;52.336;17.172;2022-09-09T09:33:08;21.80;99.90
17587;DHT22;8912;52.336;17.172;2022-09-09T09:35:42;21.60;99.90
17587;DHT22;8912;52.336;17.172;2022-09-09T09:38:17;21.60;99.90
17587;DHT22;8912;52.336;17.172;2022-09-09T09:41:07;22.10;99.90
17587;DHT22;8912;52.336;17.172;2022-09-09T09:43:39;22.50;99.90
17587;DHT22;8912;52.336;17.172;2022-09-09T09:46:21;22.40;99.90
17587;DHT22;8912;52.336;17.172;2022-09-09T09:48:59;22.40;99.90
17587;DHT22;8912;52.336;17.172;2022-09-09T09:51:30;22.20;99.90
17587;DHT22;8912;52.336;17.172;2022-09-09T09:54:16;22.30;99.90
17587;DHT22;8912;52.336;17.172;2022-09-09T09:56:51;22.50;99.90
17587;DHT22;8912;52.336;17.172;2022-09-09T09:59:22;22.30;99.90
17587;DHT22;8912;52.336;17.172;2022-09-09T10:02:13;22.20;99.90
17587;DHT22;8912;52.336;17.172;2022-09-09T10:04:44;22.20;99.90
17587;DHT22;8912;52.336;17.172;2022-09-09T10:07:18;22.40;99.90
17587;DHT22;8912;52.336;17.172;2022-09-09T10:09:52;22.30;99.90
17587;DHT22;8912;52.336;17.172;2022-09-09T10:12:31;22.20;99.90
17587;DHT22;8912;52.336;17.172;2022-09-09T10:15:07;22.40;99.90
17587;DHT22;8912;52.336;17.172;2022-09-09T10:17:51;22.10;99.90
17587;DHT22;8912;52.336;17.172;2022-09-09T10:20:32;22.40;99.90
17587;DHT22;8912;52.336;17.172;2022-09-09T10:23:11;22.80;99.90
17587;DHT22;8912;52.336;17.172;2022-09-09T10:25:57;22.60;99.90
17587;DHT22;8912;52.336;17.172;2022-09-09T10:28:36;22.40;99.90
17587;DHT22;8912;52.336;17.172;2022-09-09T10:31:18;22.30;99.90
17587;DHT22;8912;52.336;17.172;2022-09-09T10:33:57;22.30;99.90
17587;DHT22;8912;52.336;17.172;2022-09-09T10:36:34;22.40;99.90
17587;DHT22;8912;52.336;17.172;2022-09-09T10:39:18;22.30;99.90
17587;DHT22;8912;52.336;17.172;2022-09-09T10:42:00;22.30;99.90
17587;DHT22;8912;52.336;17.172;2022-09-09T10:44:52;22.50;99.90
17587;DHT22;8912;52.336;17.172;2022-09-09T10:47:44;22.40;99.90
17587;DHT22;8912;52.336;17.172;2022-09-09T10:50:48;22.90;99.90
17587;DHT22;8912;52.336;17.172;2022-09-09T10:53:38;22.90;99.90
17587;DHT22;8912;52.336;17.172;2022-09-09T10:56:12;22.70;99.90
17587;DHT22;8912;52.336;17.172;2022-09-09T10:58:46;22.90;99.90
17587;DHT22;8912;52.336;17.172;2022-09-09T11:01:19;23.20;99.90
17587;DHT22;8912;52.336;17.172;2022-09-09T11:03:53;23.60;99.90
17587;DHT22;8912;52.336;17.172;2022-09-09T11:06:30;23.80;99.90
17587;DHT22;8912;52.336;17.172;2022-09-09T11:09:02;23.90;99.90
17587;DHT22;8912;52.336;17.172;2022-09-09T11:11:36;24.20;99.90
17587;DHT22;8912;52.336;17.172;2022-09-09T11:14:12;24.50;99.90
17587;DHT22;8912;52.336;17.172;2022-09-09T11:16:47;24.40;99.90
17587;DHT22;8912;52.336;17.172;2022-09-09T11:19:21;24.30;99.90
17587;DHT22;8912;52.336;17.172;2022-09-09T11:21:55;24.00;99.90
17587;DHT22;8912;52.336;17.172;2022-09-09T11:24:28;23.80;99.90
17587;DHT22;8912;52.336;17.172;2022-09-09T11:27:02;24.00;99.90
17587;DHT22;8912;52.336;17.172;2022-09-09T11:29:47;24.20;99.90
17587;DHT22;8912;52.336;17.172;2022-09-09T11:32:40;24.50;99.90
17587;DHT22;8912;52.336;17.172;2022-09-09T11:35:30;24.60;99.90
17587;DHT22;8912;52.336;17.172;2022-09-09T11:38:16;25.10;99.90
17587;DHT22;8912;52.336;17.172;2022-09-09T11:40:47;25.00;99.30
17587;DHT22;8912;52.336;17.172;2022-09-09T11:43:24;24.20;99.60
17587;DHT22;8912;52.336;17.172;2022-09-09T11:45:56;23.90;99.90
17587;DHT22;8912;52.336;17.172;2022-09-09T11:48:32;23.60;99.90
17587;DHT22;8912;52.336;17.172;2022-09-09T11:51:05;23.60;99.90
17587;DHT22;8912;52.336;17.172;2022-09-09T11:53:53;23.90;99.90
17587;DHT22;8912;52.336;17.172;2022-09-09T11:56:27;24.10;99.90
17587;DHT22;8912;52.336;17.172;2022-09-09T11:59:00;24.20;99.90
17587;DHT22;8912;52.336;17.172;2022-09-09T12:01:41;24.20;99.90
17587;DHT22;8912;52.336;17.172;2022-09-09T12:04:28;23.90;98.50
17587;DHT22;8912;52.336;17.172;2022-09-09T12:07:00;24.00;98.20
17587;DHT22;8912;52.336;17.172;2022-09-09T12:09:43;23.40;99.90
17587;DHT22;8912;52.336;17.172;2022-09-09T12:12:28;23.60;99.90
17587;DHT22;8912;52.336;17.172;2022-09-09T12:17:49;24.20;98.60
17587;DHT22;8912;52.336;17.172;2022-09-09T12:20:21;24.50;98.30
17587;DHT22;8912;52.336;17.172;2022-09-09T12:23:07;24.60;98.50
17587;DHT22;8912;52.336;17.172;2022-09-09T12:25:49;25.00;96.40
17587;DHT22;8912;52.336;17.172;2022-09-09T12:28:22;24.50;94.80
17587;DHT22;8912;52.336;17.172;2022-09-09T12:30:58;24.00;97.50
17587;DHT22;8912;52.336;17.172;2022-09-09T12:33:34;23.70;98.40
17587;DHT22;8912;52.336;17.172;2022-09-09T12:36:06;23.50;99.90
17587;DHT22;8912;52.336;17.172;2022-09-09T12:38:41;24.00;99.00
17587;DHT22;8912;52.336;17.172;2022-09-09T12:41:20;24.50;95.50
17587;DHT22;8912;52.336;17.172;2022-09-09T12:43:49;24.70;93.70
17587;DHT22;8912;52.336;17.172;2022-09-09T12:46:32;24.70;93.70
17587;DHT22;8912;52.336;17.172;2022-09-09T12:49:03;24.90;92.30
17587;DHT22;8912;52.336;17.172;2022-09-09T12:51:34;24.60;91.60
17587;DHT22;8912;52.336;17.172;2022-09-09T12:54:03;24.70;95.00
17587;DHT22;8912;52.336;17.172;2022-09-09T12:56:33;24.70;94.70
17587;DHT22;8912;52.336;17.172;2022-09-09T12:59:02;24.70;87.10
17587;DHT22;8912;52.336;17.172;2022-09-09T13:01:32;24.50;87.00
17587;DHT22;8912;52.336;17.172;2022-09-09T13:04:01;24.50;90.70
17587;DHT22;8912;52.336;17.172;2022-09-09T13:06:32;24.90;90.90
17587;DHT22;8912;52.336;17.172;2022-09-09T13:09:02;25.10;88.90
17587;DHT22;8912;52.336;17.172;2022-09-09T13:11:38;25.10;87.10
17587;DHT22;8912;52.336;17.172;2022-09-09T13:14:15;24.90;89.90
17587;DHT22;8912;52.336;17.172;2022-09-09T13:16:55;24.70;88.10
17587;DHT22;8912;52.336;17.172;2022-09-09T13:19:24;24.10;91.60
17587;DHT22;8912;52.336;17.172;2022-09-09T13:21:55;23.60;93.50
17587;DHT22;8912;52.336;17.172;2022-09-09T13:24:28;23.30;95.40
17587;DHT22;8912;52.336;17.172;2022-09-09T13:27:00;23.20;95.50
17587;DHT22;8912;52.336;17.172;2022-09-09T13:29:29;23.20;96.90
17587;DHT22;8912;52.336;17.172;2022-09-09T13:32:04;23.20;97.40
17587;DHT22;8912;52.336;17.172;2022-09-09T13:34:34;23.30;95.80
17587;DHT22;8912;52.336;17.172;2022-09-09T13:37:05;23.40;96.30
17587;DHT22;8912;52.336;17.172;2022-09-09T13:39:36;23.70;94.20
17587;DHT22;8912;52.336;17.172;2022-09-09T13:42:22;24.00;94.90
17587;DHT22;8912;52.336;17.172;2022-09-09T13:44:53;24.30;91.40
17587;DHT22;8912;52.336;17.172;2022-09-09T13:47:28;24.30;93.60
17587;DHT22;8912;52.336;17.172;2022-09-09T13:49:58;24.10;94.10
17587;DHT22;8912;52.336;17.172;2022-09-09T13:52:27;24.10;94.40
17587;DHT22;8912;52.336;17.172;2022-09-09T13:54:58;23.90;95.30
17587;DHT22;8912;52.336;17.172;2022-09-09T13:57:28;23.80;96.40
17587;DHT22;8912;52.336;17.172;2022-09-09T13:59:56;23.80;97.10
17587;DHT22;8912;52.336;17.172;2022-09-09T14:02:32;23.50;95.60
17587;DHT22;8912;52.336;17.172;2022-09-09T14:05:01;23.40;93.90
17587;DHT22;8912;52.336;17.172;2022-09-09T14:07:29;23.30;95.90
17587;DHT22;8912;52.336;17.172;2022-09-09T14:09:59;23.30;93.70
17587;DHT22;8912;52.336;17.172;2022-09-09T14:12:29;23.40;94.10
17587;DHT22;8912;52.336;17.172;2022-09-09T14:14:57;23.70;94.70
17587;DHT22;8912;52.336;17.172;2022-09-09T14:17:26;24.00;92.60
17587;DHT22;8912;52.336;17.172;2022-09-09T14:19:58;24.20;91.70
17587;DHT22;8912;52.336;17.172;2022-09-09T14:22:27;24.50;91.80
17587;DHT22;8912;52.336;17.172;2022-09-09T14:24:55;24.60;91.20
17587;DHT22;8912;52.336;17.172;2022-09-09T14:27:24;24.70;90.20
17587;DHT22;8912;52.336;17.172;2022-09-09T14:29:55;24.70;88.20
17587;DHT22;8912;52.336;17.172;2022-09-09T14:32:24;24.70;90.00
17587;DHT22;8912;52.336;17.172;2022-09-09T14:34:53;24.70;90.10
17587;DHT22;8912;52.336;17.172;2022-09-09T14:37:22;24.70;90.40
17587;DHT22;8912;52.336;17.172;2022-09-09T14:39:51;24.50;87.80
17587;DHT22;8912;52.336;17.172;2022-09-09T14:42:20;24.50;90.00
17587;DHT22;8912;52.336;17.172;2022-09-09T14:44:49;24.50;88.80
17587;DHT22;8912;52.336;17.172;2022-09-09T14:47:19;24.60;91.10
17587;DHT22;8912;52.336;17.172;2022-09-09T14:49:48;24.40;90.50
17587;DHT22;8912;52.336;17.172;2022-09-09T14:52:17;24.60;90.90
17587;DHT22;8912;52.336;17.172;2022-09-09T14:54:46;24.80;91.10
17587;DHT22;8912;52.336;17.172;2022-09-09T14:57:14;24.70;90.20
17587;DHT22;8912;52.336;17.172;2022-09-09T14:59:43;24.50;90.70
17587;DHT22;8912;52.336;17.172;2022-09-09T15:02:11;24.20;92.40
17587;DHT22;8912;52.336;17.172;2022-09-09T15:04:42;23.90;93.20
17587;DHT22;8912;52.336;17.172;2022-09-09T15:07:11;23.80;92.40
17587;DHT22;8912;52.336;17.172;2022-09-09T15:09:40;24.00;93.10
17587;DHT22;8912;52.336;17.172;2022-09-09T15:12:08;24.30;92.40
17587;DHT22;8912;52.336;17.172;2022-09-09T15:14:37;24.40;91.10
17587;DHT22;8912;52.336;17.172;2022-09-09T15:17:05;24.40;91.10
17587;DHT22;8912;52.336;17.172;2022-09-09T15:19:34;24.50;90.90
17587;DHT22;8912;52.336;17.172;2022-09-09T15:22:05;24.60;91.10
17587;DHT22;8912;52.336;17.172;2022-09-09T15:24:35;24.50;89.10
17587;DHT22;8912;52.336;17.172;2022-09-09T15:27:04;24.60;89.10
17587;DHT22;8912;52.336;17.172;2022-09-09T15:29:32;24.50;89.30
17587;DHT22;8912;52.336;17.172;2022-09-09T15:32:01;24.40;90.10
17587;DHT22;8912;52.336;17.172;2022-09-09T15:34:30;24.20;91.80
17587;DHT22;8912;52.336;17.172;2022-09-09T15:36:59;24.10;91.30
17587;DHT22;8912;52.336;17.172;2022-09-09T15:39:29;24.00;93.00
17587;DHT22;8912;52.336;17.172;2022-09-09T15:42:04;23.80;93.20
17587;DHT22;8912;52.336;17.172;2022-09-09T15:44:40;23.60;93.00
17587;DHT22;8912;52.336;17.172;2022-09-09T15:47:11;23.30;94.40
17587;DHT22;8912;52.336;17.172;2022-09-09T15:49:40;23.00;93.90
17587;DHT22;8912;52.336;17.172;2022-09-09T15:52:10;22.90;95.20
17587;DHT22;8912;52.336;17.172;2022-09-09T15:54:40;22.70;96.10
17587;DHT22;8912;52.336;17.172;2022-09-09T15:57:12;22.50;97.50
17587;DHT22;8912;52.336;17.172;2022-09-09T15:59:41;22.60;99.20
17587;DHT22;8912;52.336;17.172;2022-09-09T16:02:12;22.50;99.60
17587;DHT22;8912;52.336;17.172;2022-09-09T16:04:41;22.40;99.90
17587;DHT22;8912;52.336;17.172;2022-09-09T16:07:09;22.30;99.90
17587;DHT22;8912;52.336;17.172;2022-09-09T16:09:38;22.20;99.90
17587;DHT22;8912;52.336;17.172;2022-09-09T16:12:08;22.10;99.90